Time;durP1;ratioP1;P1;durP2;ratioP2;P2;SDS_P1;SDS_P2;PMS_P1;PMS_P2;Temp;Humidity;BMP_temperature;BMP_pressure;BME280_temperature;BME280_humidity;BME280_pressure;Samples;Min_cycle;Max_cycle;Signal;HPM_P1;HPM_P2
2021/06/20 00:02:24;;;;;;;9.57;8.57;;;27.20;99.90;;;;;;5040693;28;20706;-77
2021/06/20 00:04:50;;;;;;;11.10;9.60;;;27.10;99.90;;;;;;5041394;28;20198;-76
2021/06/20 00:07:15;;;;;;;9.40;8.47;;;27.10;99.90;;;;;;5037236;28;20180;-76
2021/06/20 00:09:41;;;;;;;11.73;9.57;;;27.10;99.90;;;;;;5041403;28;20258;-76
2021/06/20 00:12:07;;;;;;;11.07;10.00;;;27.10;99.90;;;;;;5038620;28;20256;-76
2021/06/20 00:14:33;;;;;;;9.50;8.70;;;27.10;99.90;;;;;;5039618;28;20197;-76
2021/06/20 00:16:58;;;;;;;9.90;9.00;;;27.20;99.90;;;;;;5041632;28;20795;-76
2021/06/20 00:19:24;;;;;;;10.40;9.30;;;27.10;99.90;;;;;;5040907;28;20242;-76
2021/06/20 00:21:49;;;;;;;10.67;9.50;;;27.20;99.90;;;;;;5030890;28;20228;-76
2021/06/20 00:24:15;;;;;;;9.30;8.50;;;27.20;99.90;;;;;;5032461;28;20208;-76
2021/06/20 00:26:40;;;;;;;10.13;9.33;;;27.20;99.90;;;;;;5040852;28;20194;-76
2021/06/20 00:29:06;;;;;;;9.27;8.37;;;27.20;99.90;;;;;;5038067;28;20183;-77
2021/06/20 00:31:32;;;;;;;8.67;7.90;;;27.30;99.90;;;;;;5040452;28;20708;-77
2021/06/20 00:33:58;;;;;;;9.50;8.37;;;27.40;99.90;;;;;;5040346;28;20678;-76
2021/06/20 00:36:23;;;;;;;9.63;8.50;;;27.30;99.90;;;;;;5036141;28;20175;-76
2021/06/20 00:38:49;;;;;;;9.87;8.97;;;27.30;99.90;;;;;;5041075;28;20182;-76
2021/06/20 00:41:14;;;;;;;9.87;8.33;;;27.40;99.90;;;;;;5038661;28;20185;-76
2021/06/20 00:43:40;;;;;;;11.10;8.30;;;27.50;99.90;;;;;;5042083;28;20666;-76
2021/06/20 00:46:08;;;;;;;10.60;9.50;;;27.50;99.90;;;;;;5039575;28;20225;-76
2021/06/20 00:48:34;;;;;;;9.80;8.90;;;27.50;99.90;;;;;;5035360;28;20202;-76
2021/06/20 00:50:59;;;;;;;9.60;8.63;;;27.60;99.60;;;;;;5041305;28;20473;-76
2021/06/20 00:53:25;;;;;;;10.53;7.70;;;27.60;99.90;;;;;;5036063;28;20207;-76
2021/06/20 00:55:51;;;;;;;11.07;8.70;;;27.70;99.70;;;;;;5041038;28;20193;-76
2021/06/20 00:58:22;;;;;;;11.37;9.03;;;27.70;99.70;;;;;;5037443;28;20225;-75
2021/06/20 01:00:48;;;;;;;8.43;7.50;;;27.70;99.50;;;;;;5041504;28;20218;-76
2021/06/20 01:03:14;;;;;;;13.90;8.80;;;27.90;99.30;;;;;;5038096;28;20545;-76
2021/06/20 01:05:41;;;;;;;13.63;9.20;;;27.90;99.30;;;;;;5036437;28;20199;-77
2021/06/20 01:08:08;;;;;;;10.07;8.60;;;27.90;99.10;;;;;;5039897;28;20421;-76
2021/06/20 01:10:35;;;;;;;12.20;8.60;;;28.00;99.50;;;;;;5036097;28;20422;-77
2021/06/20 01:13:03;;;;;;;12.03;8.23;;;27.90;98.90;;;;;;5042342;28;20440;-77
2021/06/20 01:15:29;;;;;;;9.73;8.53;;;27.90;99.90;;;;;;5034928;28;20430;-77
2021/06/20 01:17:55;;;;;;;12.20;8.70;;;27.70;99.90;;;;;;5043566;28;20463;-76
2021/06/20 01:20:21;;;;;;;9.73;8.30;;;27.70;99.90;;;;;;5035696;28;20191;-76
2021/06/20 01:22:49;;;;;;;9.10;8.30;;;27.50;99.90;;;;;;5023163;28;20473;-79
2021/06/20 01:25:18;;;;;;;10.27;9.20;;;27.40;99.90;;;;;;5040619;28;20207;-76
2021/06/20 01:27:49;;;;;;;10.00;8.83;;;27.30;99.90;;;;;;5036461;28;20417;-76
2021/06/20 01:30:19;;;;;;;10.60;9.43;;;27.20;99.90;;;;;;5042548;28;20487;-76
2021/06/20 01:32:45;;;;;;;10.70;9.70;;;27.20;99.90;;;;;;5036299;28;20433;-76
2021/06/20 01:35:13;;;;;;;11.07;10.07;;;27.00;99.90;;;;;;5036175;28;20418;-77
2021/06/20 01:37:39;;;;;;;12.73;10.23;;;27.10;99.90;;;;;;5039896;28;20417;-79
2021/06/20 01:40:09;;;;;;;11.30;9.70;;;27.00;99.90;;;;;;5036908;28;20425;-76
2021/06/20 01:42:35;;;;;;;10.70;9.57;;;26.90;99.90;;;;;;5039406;28;20206;-76
2021/06/20 01:45:01;;;;;;;10.17;9.00;;;26.80;99.90;;;;;;5036866;28;20819;-75
2021/06/20 01:47:28;;;;;;;13.87;10.30;;;26.80;99.90;;;;;;5038086;28;20428;-78
2021/06/20 01:49:57;;;;;;;11.60;10.37;;;26.70;99.90;;;;;;5036983;28;20179;-77
2021/06/20 01:52:24;;;;;;;11.23;10.20;;;26.60;99.90;;;;;;5038465;28;20436;-76
2021/06/20 01:54:51;;;;;;;11.50;10.30;;;26.60;99.90;;;;;;5038952;28;20428;-78
2021/06/20 01:57:38;;;;;;;12.07;10.20;;;26.50;99.90;;;;;;5036651;28;20428;-77
2021/06/20 02:00:08;;;;;;;13.30;10.20;;;26.30;99.90;;;;;;5036855;28;20964;-76
2021/06/20 02:02:34;;;;;;;14.17;9.37;;;26.30;99.90;;;;;;5039529;28;20494;-77
2021/06/20 02:04:59;;;;;;;10.10;9.10;;;26.30;99.90;;;;;;5039116;28;20575;-77
2021/06/20 02:07:26;;;;;;;14.23;10.93;;;26.20;99.90;;;;;;5034347;28;20651;-77
2021/06/20 02:09:53;;;;;;;13.70;11.17;;;26.20;99.90;;;;;;5039436;28;20198;-76
2021/06/20 02:12:23;;;;;;;11.07;9.70;;;26.10;99.90;;;;;;5036887;28;20442;-76
2021/06/20 02:14:50;;;;;;;16.50;9.87;;;26.10;99.90;;;;;;5039525;28;20475;-76
2021/06/20 02:17:33;;;;;;;16.90;10.40;;;26.10;99.90;;;;;;5038466;28;20929;-76
2021/06/20 02:20:07;;;;;;;11.57;10.20;;;26.00;99.90;;;;;;5038851;28;20814;-76
2021/06/20 02:22:33;;;;;;;17.77;10.27;;;26.00;99.90;;;;;;5020536;28;20493;-76
2021/06/20 02:24:59;;;;;;;15.53;10.50;;;26.00;99.90;;;;;;5038547;28;20454;-76
2021/06/20 02:27:25;;;;;;;17.23;9.93;;;25.90;99.90;;;;;;5031622;28;20422;-76
2021/06/20 02:29:53;;;;;;;10.10;9.37;;;25.80;99.90;;;;;;5040386;28;20525;-76
2021/06/20 02:32:20;;;;;;;10.87;9.50;;;25.80;99.90;;;;;;5035746;28;20202;-77
2021/06/20 02:34:47;;;;;;;17.43;9.63;;;25.80;99.90;;;;;;5030811;28;20416;-77
2021/06/20 02:37:13;;;;;;;11.70;9.53;;;25.80;99.90;;;;;;5035435;28;20460;-77
2021/06/20 02:39:39;;;;;;;14.93;10.60;;;25.80;99.90;;;;;;5038797;28;20432;-77
2021/06/20 02:42:07;;;;;;;12.23;9.80;;;25.70;99.90;;;;;;5034563;28;20810;-76
2021/06/20 02:44:33;;;;;;;11.23;9.37;;;25.70;99.90;;;;;;5042084;28;21096;-76
2021/06/20 02:47:01;;;;;;;12.67;9.43;;;25.70;99.90;;;;;;5035035;28;20829;-77
2021/06/20 02:49:28;;;;;;;14.20;9.70;;;25.60;99.90;;;;;;5019004;28;20419;-76
2021/06/20 02:51:53;;;;;;;11.00;9.67;;;25.70;99.90;;;;;;5039758;28;20438;-77
2021/06/20 02:54:19;;;;;;;15.23;9.23;;;25.70;99.90;;;;;;5041696;28;20437;-76
2021/06/20 02:56:44;;;;;;;14.87;10.33;;;25.60;99.90;;;;;;5041500;28;20210;-77
2021/06/20 02:59:10;;;;;;;15.80;9.57;;;25.60;99.90;;;;;;5039964;28;20198;-77
2021/06/20 03:01:36;;;;;;;13.20;8.80;;;25.50;99.90;;;;;;5045393;28;20240;-76
2021/06/20 03:04:02;;;;;;;12.30;8.80;;;25.50;99.90;;;;;;5037586;28;20182;-77
2021/06/20 03:06:27;;;;;;;11.57;8.87;;;25.40;99.90;;;;;;5041162;28;20174;-78
2021/06/20 03:08:53;;;;;;;13.33;8.40;;;25.40;99.90;;;;;;5039270;28;20269;-76
2021/06/20 03:11:19;;;;;;;14.13;8.37;;;25.30;99.90;;;;;;5041490;28;20179;-76
2021/06/20 03:13:46;;;;;;;13.23;7.90;;;25.30;99.90;;;;;;5041769;28;20203;-77
2021/06/20 03:16:12;;;;;;;10.80;7.13;;;25.20;99.90;;;;;;5040552;28;20449;-76
2021/06/20 03:18:38;;;;;;;7.17;6.10;;;25.20;99.90;;;;;;5044228;28;20507;-76
2021/06/20 03:21:04;;;;;;;10.80;5.90;;;25.10;99.90;;;;;;5038488;28;20187;-76
2021/06/20 03:23:29;;;;;;;9.97;5.40;;;25.00;99.90;;;;;;5027349;28;20225;-76
2021/06/20 03:25:55;;;;;;;9.30;4.97;;;24.90;99.90;;;;;;5038731;28;20662;-76
2021/06/20 03:28:20;;;;;;;4.73;4.33;;;24.90;99.90;;;;;;5041295;28;20186;-75
2021/06/20 03:30:46;;;;;;;5.07;3.50;;;24.90;99.90;;;;;;5041888;28;20236;-76
2021/06/20 03:33:12;;;;;;;7.03;4.87;;;24.80;99.90;;;;;;5040561;28;20676;-76
2021/06/20 03:35:37;;;;;;;6.67;3.90;;;24.70;99.90;;;;;;5032657;28;20627;-76
2021/06/20 03:38:03;;;;;;;5.50;4.17;;;24.80;99.90;;;;;;5039453;28;20221;-75
2021/06/20 03:40:28;;;;;;;5.50;3.90;;;24.70;99.90;;;;;;5044618;28;20209;-75
2021/06/20 03:42:54;;;;;;;7.13;4.90;;;24.70;99.90;;;;;;5046269;28;20214;-74
2021/06/20 03:45:19;;;;;;;8.10;5.10;;;24.70;99.90;;;;;;5039442;28;20706;-76
2021/06/20 03:47:45;;;;;;;6.20;3.63;;;24.60;99.90;;;;;;5036213;28;20195;-75
2021/06/20 03:50:11;;;;;;;6.33;4.57;;;24.70;99.90;;;;;;5040017;28;20187;-76
2021/06/20 03:52:38;;;;;;;7.53;4.40;;;24.60;99.90;;;;;;5042441;28;20314;-76
2021/06/20 03:55:05;;;;;;;9.20;3.77;;;24.60;99.90;;;;;;5025340;28;20434;-75
2021/06/20 03:57:31;;;;;;;9.03;4.17;;;24.50;99.90;;;;;;5042554;28;20428;-76
2021/06/20 03:59:56;;;;;;;6.30;3.73;;;24.40;99.90;;;;;;5046819;28;20431;-74
2021/06/20 04:02:22;;;;;;;7.80;4.60;;;24.30;99.90;;;;;;5052848;28;20209;-75
2021/06/20 04:04:47;;;;;;;6.23;3.47;;;24.20;99.90;;;;;;5051833;28;20255;-75
2021/06/20 04:07:13;;;;;;;6.37;4.47;;;24.20;99.90;;;;;;5037955;28;20207;-75
2021/06/20 04:09:40;;;;;;;6.63;4.20;;;24.20;99.90;;;;;;5041778;28;20202;-76
2021/06/20 04:12:06;;;;;;;5.90;3.83;;;24.10;99.90;;;;;;5042006;28;20260;-75
2021/06/20 04:14:33;;;;;;;7.77;4.43;;;24.10;99.90;;;;;;5051914;28;20432;-75
2021/06/20 04:16:58;;;;;;;8.03;3.73;;;24.00;99.90;;;;;;5054046;28;20429;-76
2021/06/20 04:19:24;;;;;;;5.00;3.43;;;24.00;99.90;;;;;;5052795;28;20429;-75
2021/06/20 04:21:49;;;;;;;4.90;4.20;;;24.00;99.90;;;;;;5041182;28;20302;-76
2021/06/20 04:24:15;;;;;;;5.87;4.03;;;23.90;99.90;;;;;;5034195;28;20257;-76
2021/06/20 04:26:41;;;;;;;6.93;4.23;;;23.90;99.90;;;;;;5041035;28;20183;-76
2021/06/20 04:29:08;;;;;;;5.27;3.80;;;23.90;99.90;;;;;;5039460;28;20210;-76
2021/06/20 04:31:33;;;;;;;4.57;3.60;;;23.90;99.90;;;;;;5039473;28;20456;-76
2021/06/20 04:33:59;;;;;;;9.93;4.07;;;23.80;99.90;;;;;;5042059;28;20424;-76
2021/06/20 04:36:24;;;;;;;8.00;4.27;;;23.80;99.90;;;;;;5033812;28;20179;-76
2021/06/20 04:38:50;;;;;;;7.63;5.00;;;23.70;99.90;;;;;;5041816;28;20178;-76
2021/06/20 04:41:18;;;;;;;6.63;4.17;;;23.70;99.90;;;;;;5039151;28;20183;-77
2021/06/20 04:46:34;;;;;;;6.47;3.80;;;23.50;99.90;;;;;;5039364;28;20487;-76
2021/06/20 04:49:06;;;;;;;6.27;4.13;;;23.50;99.90;;;;;;5035204;28;20522;-76
2021/06/20 04:51:34;;;;;;;9.00;4.10;;;23.40;99.90;;;;;;5035855;28;20421;-75
2021/06/20 04:54:00;;;;;;;4.30;3.60;;;23.40;99.90;;;;;;5037196;28;20796;-76
2021/06/20 04:56:26;;;;;;;5.80;4.10;;;23.30;99.90;;;;;;5030182;28;20418;-76
2021/06/20 04:58:52;;;;;;;4.20;3.70;;;23.30;99.90;;;;;;5037010;28;20413;-76
2021/06/20 05:01:18;;;;;;;5.60;4.17;;;23.30;99.90;;;;;;5044561;28;20272;-76
2021/06/20 05:03:44;;;;;;;7.40;4.20;;;23.40;99.90;;;;;;5036926;28;20433;-76
2021/06/20 05:06:09;;;;;;;9.23;4.30;;;23.40;99.90;;;;;;5038361;28;20457;-76
2021/06/20 05:08:35;;;;;;;6.23;4.80;;;23.40;99.90;;;;;;5040525;28;20273;-76
2021/06/20 05:11:01;;;;;;;5.90;3.80;;;23.40;99.90;;;;;;5036876;28;20175;-76
2021/06/20 05:13:27;;;;;;;5.27;3.70;;;23.40;99.90;;;;;;5045899;28;20203;-76
2021/06/20 05:15:53;;;;;;;4.17;3.77;;;23.50;99.90;;;;;;5034414;28;20333;-76
2021/06/20 05:18:19;;;;;;;7.20;4.10;;;23.60;99.90;;;;;;5044251;28;20504;-76
2021/06/20 05:20:44;;;;;;;3.93;3.50;;;23.60;99.90;;;;;;5036404;28;20675;-76
2021/06/20 05:23:10;;;;;;;5.57;3.60;;;23.60;99.90;;;;;;5022159;28;20246;-76
2021/06/20 05:25:35;;;;;;;4.17;3.70;;;23.60;99.90;;;;;;5034808;28;20225;-76
2021/06/20 05:28:01;;;;;;;7.77;4.10;;;23.60;99.90;;;;;;5036305;28;20186;-75
2021/06/20 05:30:27;;;;;;;4.73;3.97;;;23.60;99.90;;;;;;5043268;28;20201;-76
2021/06/20 05:32:54;;;;;;;5.40;3.93;;;23.60;99.90;;;;;;5036721;28;20222;-77
2021/06/20 05:35:20;;;;;;;4.77;4.33;;;23.50;99.90;;;;;;5038252;28;20183;-76
2021/06/20 05:37:46;;;;;;;5.77;4.20;;;23.50;99.90;;;;;;5039624;28;20814;-76
2021/06/20 05:40:12;;;;;;;4.30;3.90;;;23.40;99.90;;;;;;5036943;28;20418;-77
2021/06/20 05:42:38;;;;;;;5.00;3.80;;;23.40;99.90;;;;;;5039485;28;20452;-76
2021/06/20 05:45:04;;;;;;;4.03;3.53;;;23.30;99.90;;;;;;5038923;28;20472;-76
2021/06/20 05:47:30;;;;;;;4.37;3.90;;;23.30;99.90;;;;;;5039268;28;20470;-76
2021/06/20 05:49:56;;;;;;;5.13;3.70;;;23.40;99.90;;;;;;5031644;28;20937;-76
2021/06/20 05:52:21;;;;;;;7.20;4.07;;;23.40;99.90;;;;;;5039109;28;20202;-76
2021/06/20 05:54:50;;;;;;;5.90;4.53;;;23.30;99.90;;;;;;5037734;28;20504;-78
2021/06/20 05:57:17;;;;;;;8.30;4.07;;;23.30;99.90;;;;;;5037520;28;20639;-76
2021/06/20 05:59:43;;;;;;;4.20;3.73;;;23.30;99.90;;;;;;5039084;28;21183;-76
2021/06/20 06:02:08;;;;;;;5.10;3.87;;;23.30;99.90;;;;;;5038840;28;20442;-75
2021/06/20 06:04:34;;;;;;;5.33;4.07;;;23.40;99.90;;;;;;5034766;28;20211;-76
2021/06/20 06:06:59;;;;;;;5.37;3.53;;;23.40;99.90;;;;;;5025648;28;20635;-75
2021/06/20 06:09:25;;;;;;;3.87;3.57;;;23.40;99.90;;;;;;5026635;28;20193;-76
2021/06/20 06:11:50;;;;;;;6.17;3.80;;;23.40;99.90;;;;;;5039843;28;20277;-75
2021/06/20 06:14:16;;;;;;;5.07;4.10;;;23.40;99.90;;;;;;5035752;28;20186;-77
2021/06/20 06:16:42;;;;;;;3.70;3.40;;;23.40;99.90;;;;;;5029660;28;20178;-76
2021/06/20 06:19:09;;;;;;;7.97;4.50;;;23.40;99.90;;;;;;5038937;28;20220;-76
2021/06/20 06:21:36;;;;;;;6.30;4.57;;;23.40;99.90;;;;;;5033968;28;20842;-76
2021/06/20 06:24:02;;;;;;;5.30;4.40;;;23.50;99.90;;;;;;5032217;28;20413;-76
2021/06/20 06:26:27;;;;;;;4.63;4.23;;;23.50;99.90;;;;;;5043664;28;20440;-77
2021/06/20 06:28:53;;;;;;;5.63;3.80;;;23.40;99.90;;;;;;5043321;28;20429;-75
2021/06/20 06:31:19;;;;;;;6.00;4.50;;;23.40;99.90;;;;;;5041623;28;20185;-76
2021/06/20 06:33:44;;;;;;;6.60;4.03;;;23.40;99.90;;;;;;5043429;28;20260;-76
2021/06/20 06:36:10;;;;;;;4.73;4.10;;;23.40;99.90;;;;;;5044176;28;20237;-76
2021/06/20 06:38:35;;;;;;;5.07;4.60;;;23.40;99.90;;;;;;5042406;28;20651;-76
2021/06/20 06:41:01;;;;;;;5.40;3.73;;;23.50;99.90;;;;;;5042938;28;20562;-76
2021/06/20 06:43:26;;;;;;;6.90;4.50;;;23.50;99.90;;;;;;5042829;28;20283;-77
2021/06/20 06:45:52;;;;;;;4.53;3.70;;;23.50;99.90;;;;;;5042020;28;20217;-76
2021/06/20 06:48:18;;;;;;;5.40;3.83;;;23.60;99.90;;;;;;5025250;28;20715;-74
2021/06/20 06:50:44;;;;;;;6.50;3.50;;;23.80;99.90;;;;;;5035732;28;20232;-76
2021/06/20 06:53:10;;;;;;;4.30;3.90;;;23.80;99.90;;;;;;5041462;28;20206;-78
2021/06/20 06:55:36;;;;;;;4.90;4.03;;;23.90;99.90;;;;;;5035429;28;20871;-75
2021/06/20 06:58:02;;;;;;;4.80;4.17;;;23.90;99.90;;;;;;5042707;28;20992;-76
2021/06/20 07:00:28;;;;;;;5.73;4.50;;;23.90;99.90;;;;;;5042889;28;20186;-78
2021/06/20 07:02:54;;;;;;;6.23;5.43;;;23.90;99.90;;;;;;5042655;28;20835;-77
2021/06/20 07:05:20;;;;;;;5.53;5.03;;;23.90;99.90;;;;;;5035625;28;20215;-77
2021/06/20 07:07:46;;;;;;;4.87;4.30;;;23.90;99.90;;;;;;5042677;28;20189;-76
2021/06/20 07:10:12;;;;;;;6.03;5.03;;;24.00;99.90;;;;;;5041856;28;20798;-77
2021/06/20 07:12:38;;;;;;;5.80;5.13;;;23.90;99.90;;;;;;5047209;28;20456;-78
2021/06/20 07:15:05;;;;;;;5.83;4.40;;;23.90;99.90;;;;;;5047990;28;20443;-77
2021/06/20 07:17:35;;;;;;;5.87;4.60;;;23.90;99.90;;;;;;5056944;28;20168;-77
2021/06/20 07:20:04;;;;;;;8.17;5.57;;;23.90;99.90;;;;;;5056830;28;20410;-76
2021/06/20 07:22:29;;;;;;;6.60;5.30;;;23.90;99.90;;;;;;5053887;28;20540;-78
2021/06/20 07:24:56;;;;;;;5.10;4.63;;;23.90;99.90;;;;;;5064481;28;20469;-76
2021/06/20 07:27:22;;;;;;;6.57;5.00;;;23.90;99.90;;;;;;5064227;28;20190;-77
2021/06/20 07:29:48;;;;;;;5.07;4.77;;;23.90;99.90;;;;;;5060111;28;20425;-76
2021/06/20 07:32:14;;;;;;;5.20;4.70;;;23.80;99.90;;;;;;5046300;28;20723;-77
2021/06/20 07:34:40;;;;;;;5.30;4.90;;;23.90;99.90;;;;;;5055354;28;20460;-77
2021/06/20 07:37:06;;;;;;;5.40;5.00;;;23.90;99.90;;;;;;5063783;28;20428;-77
2021/06/20 07:39:32;;;;;;;5.00;4.50;;;24.00;99.90;;;;;;5059460;28;20210;-76
2021/06/20 07:41:59;;;;;;;6.70;5.40;;;24.10;99.90;;;;;;5057066;28;20206;-76
2021/06/20 07:44:25;;;;;;;5.83;5.13;;;24.10;99.90;;;;;;5056996;28;20605;-77
2021/06/20 07:46:51;;;;;;;6.07;4.27;;;24.10;99.90;;;;;;5064663;28;20423;-76
2021/06/20 07:49:17;;;;;;;5.13;4.70;;;24.10;99.90;;;;;;5042955;28;20167;-77
2021/06/20 07:51:43;;;;;;;6.10;4.83;;;24.20;99.90;;;;;;5051463;28;20183;-76
2021/06/20 07:54:09;;;;;;;5.33;4.83;;;24.30;99.90;;;;;;5047538;28;20183;-76
2021/06/20 07:56:35;;;;;;;5.40;5.00;;;24.30;99.90;;;;;;5052288;28;21009;-75
2021/06/20 07:59:00;;;;;;;7.53;5.47;;;24.20;99.90;;;;;;5041898;28;20176;-76
2021/06/20 08:01:28;;;;;;;5.20;4.60;;;24.20;99.90;;;;;;5028092;28;20184;-75
2021/06/20 08:03:54;;;;;;;5.17;4.60;;;24.20;99.90;;;;;;5034565;28;20188;-76
2021/06/20 08:06:20;;;;;;;5.50;5.00;;;24.20;99.90;;;;;;5019543;28;20464;-76
2021/06/20 08:08:46;;;;;;;4.93;4.63;;;24.20;99.90;;;;;;5043445;28;20175;-75
2021/06/20 08:11:12;;;;;;;5.43;4.93;;;24.20;99.90;;;;;;5040664;28;20497;-75
2021/06/20 08:13:38;;;;;;;5.60;5.10;;;24.30;99.90;;;;;;5045130;28;20207;-75
2021/06/20 08:16:04;;;;;;;8.50;5.20;;;24.50;99.90;;;;;;5037406;28;20187;-77
2021/06/20 08:18:30;;;;;;;6.20;4.87;;;24.70;99.90;;;;;;5010821;28;20474;-75
2021/06/20 08:20:56;;;;;;;5.00;4.57;;;24.80;99.90;;;;;;5014088;28;20450;-75
2021/06/20 08:23:22;;;;;;;5.10;4.67;;;24.80;99.90;;;;;;5017573;28;20466;-75
2021/06/20 08:25:48;;;;;;;5.40;5.00;;;24.90;99.90;;;;;;5044755;28;20227;-76
2021/06/20 08:28:13;;;;;;;6.27;5.03;;;24.90;99.90;;;;;;5042447;28;20903;-76
2021/06/20 08:30:39;;;;;;;5.80;5.30;;;24.90;99.90;;;;;;5048845;28;20186;-77
2021/06/20 08:33:05;;;;;;;5.30;4.90;;;24.70;99.90;;;;;;5066258;28;20205;-77
2021/06/20 08:35:31;;;;;;;7.00;4.60;;;24.60;99.90;;;;;;5044393;28;20214;-76
2021/06/20 08:37:56;;;;;;;5.23;4.70;;;24.50;99.90;;;;;;5057576;28;20202;-76
2021/06/20 08:40:23;;;;;;;4.80;4.40;;;24.50;99.90;;;;;;5069571;28;20167;-77
2021/06/20 08:42:48;;;;;;;6.23;4.20;;;24.50;99.90;;;;;;5052978;28;20207;-76
2021/06/20 08:45:16;;;;;;;4.50;4.10;;;24.70;99.90;;;;;;5048697;28;20470;-77
2021/06/20 08:47:41;;;;;;;4.80;4.30;;;24.90;99.90;;;;;;5053233;28;20179;-77
2021/06/20 08:50:09;;;;;;;4.37;3.93;;;25.00;99.90;;;;;;5048358;28;20452;-77
2021/06/20 08:52:35;;;;;;;3.90;3.50;;;25.10;99.90;;;;;;5043731;28;20199;-77
2021/06/20 08:55:01;;;;;;;4.50;4.10;;;25.10;99.90;;;;;;5046934;28;20431;-77
2021/06/20 08:57:47;;;;;;;5.33;4.70;;;25.30;99.90;;;;;;5044302;28;20217;-76
2021/06/20 09:00:15;;;;;;;5.03;4.63;;;25.20;99.90;;;;;;5054005;28;20387;-76
2021/06/20 09:02:40;;;;;;;7.10;4.83;;;25.10;99.90;;;;;;5040582;28;20810;-76
2021/06/20 09:05:09;;;;;;;6.10;4.47;;;25.30;99.90;;;;;;5031554;28;20450;-76
2021/06/20 09:07:40;;;;;;;4.40;4.00;;;25.30;99.90;;;;;;5029267;28;20182;-76
2021/06/20 09:10:11;;;;;;;5.03;4.63;;;25.40;99.90;;;;;;5037995;28;20489;-76
2021/06/20 09:12:49;;;;;;;4.90;4.40;;;25.30;99.90;;;;;;5033588;28;20444;-77
2021/06/20 09:15:17;;;;;;;7.13;4.63;;;25.30;99.90;;;;;;5038233;28;21000;-77
2021/06/20 09:17:52;;;;;;;5.33;3.37;;;25.30;99.90;;;;;;5036497;28;20432;-77
2021/06/20 09:20:28;;;;;;;5.10;4.60;;;25.40;99.90;;;;;;5037344;28;20443;-77
2021/06/20 09:22:58;;;;;;;5.93;3.93;;;25.40;99.90;;;;;;5018954;28;20465;-77
2021/06/20 09:25:26;;;;;;;9.20;4.23;;;25.40;99.90;;;;;;5041557;28;20469;-77
2021/06/20 09:27:57;;;;;;;4.20;3.57;;;25.40;99.90;;;;;;5036884;28;20471;-75
2021/06/20 09:30:24;;;;;;;5.53;4.20;;;25.50;99.90;;;;;;5038960;28;20421;-77
2021/06/20 09:33:00;;;;;;;4.37;3.90;;;25.80;99.90;;;;;;5034252;28;20434;-76
2021/06/20 09:35:30;;;;;;;4.07;3.50;;;26.10;99.90;;;;;;5024002;28;20963;-76
2021/06/20 09:37:58;;;;;;;4.37;3.97;;;26.10;99.90;;;;;;5033556;28;20504;-75
2021/06/20 09:40:27;;;;;;;5.77;4.23;;;26.20;99.90;;;;;;5041930;28;20521;-76
2021/06/20 09:42:52;;;;;;;4.10;3.70;;;26.20;99.90;;;;;;5039529;28;20474;-77
2021/06/20 09:45:32;;;;;;;4.37;3.97;;;26.20;99.90;;;;;;5038438;28;20469;-77
2021/06/20 09:47:58;;;;;;;4.40;4.00;;;26.20;99.90;;;;;;5039463;28;20179;-76
2021/06/20 09:50:39;;;;;;;5.13;4.20;;;26.20;99.90;;;;;;5035340;28;20508;-77
2021/06/20 09:53:06;;;;;;;4.47;4.07;;;26.30;99.90;;;;;;5038568;28;20444;-76
2021/06/20 09:55:33;;;;;;;5.23;4.47;;;26.50;99.90;;;;;;5038088;28;20413;-77
2021/06/20 09:58:01;;;;;;;5.07;4.60;;;26.60;99.90;;;;;;5040089;28;20425;-77
2021/06/20 10:00:42;;;;;;;5.20;4.13;;;26.70;99.90;;;;;;5036943;28;20490;-77
2021/06/20 10:03:20;;;;;;;4.20;3.90;;;26.60;99.90;;;;;;5040706;28;20829;-77
2021/06/20 10:05:47;;;;;;;4.73;3.80;;;26.30;99.90;;;;;;5035630;28;20457;-77
2021/06/20 10:08:13;;;;;;;4.10;3.70;;;26.50;99.90;;;;;;5040539;28;20421;-76
2021/06/20 10:10:38;;;;;;;6.90;4.43;;;26.50;99.90;;;;;;5035243;28;20455;-77
2021/06/20 10:13:04;;;;;;;11.30;4.00;;;26.60;99.90;;;;;;5042066;28;20202;-75
2021/06/20 10:15:30;;;;;;;4.30;3.90;;;26.90;99.90;;;;;;5035697;28;20240;-76
2021/06/20 10:17:59;;;;;;;5.10;3.53;;;27.10;99.90;;;;;;5043844;28;20193;-78
2021/06/20 10:20:31;;;;;;;4.90;4.00;;;27.00;99.90;;;;;;5035676;28;20186;-76
2021/06/20 10:22:58;;;;;;;4.57;4.17;;;26.90;99.90;;;;;;5023415;28;20523;-77
2021/06/20 10:25:32;;;;;;;4.63;4.23;;;26.60;99.90;;;;;;5042040;28;20469;-77
2021/06/20 10:28:05;;;;;;;6.00;4.00;;;26.60;99.90;;;;;;5031832;28;20413;-76
2021/06/20 10:30:35;;;;;;;7.10;4.40;;;26.60;99.90;;;;;;5033570;28;20433;-76
2021/06/20 10:33:07;;;;;;;4.53;4.13;;;26.70;99.90;;;;;;5032838;28;20520;-75
2021/06/20 10:35:33;;;;;;;4.20;3.80;;;26.60;99.90;;;;;;5038753;28;20486;-77
2021/06/20 10:37:59;;;;;;;4.10;3.80;;;26.60;99.90;;;;;;5032005;28;20427;-76
2021/06/20 10:40:41;;;;;;;5.63;3.73;;;26.70;99.90;;;;;;5037971;28;20425;-76
2021/06/20 10:43:22;;;;;;;3.83;3.60;;;26.80;99.90;;;;;;5038004;28;20217;-77
2021/06/20 10:45:49;;;;;;;4.33;3.60;;;26.70;99.90;;;;;;5038895;28;20560;-76
2021/06/20 10:48:18;;;;;;;4.00;3.40;;;26.90;99.90;;;;;;5034578;28;20417;-76
2021/06/20 10:50:51;;;;;;;4.47;3.80;;;26.80;99.90;;;;;;5037112;28;20935;-76
2021/06/20 10:53:18;;;;;;;4.53;3.53;;;26.80;99.90;;;;;;5036223;28;21011;-76
2021/06/20 10:55:56;;;;;;;4.77;3.27;;;26.50;99.90;;;;;;5038680;28;20424;-76
2021/06/20 10:58:25;;;;;;;3.87;3.50;;;26.60;99.90;;;;;;5036810;28;20547;-75
2021/06/20 11:01:12;;;;;;;3.90;3.67;;;26.70;99.90;;;;;;5042061;28;20427;-76
2021/06/20 11:03:39;;;;;;;5.00;4.50;;;26.70;99.90;;;;;;5032070;28;20440;-77
2021/06/20 11:06:05;;;;;;;3.93;3.10;;;26.90;99.90;;;;;;5032905;28;20461;-78
2021/06/20 11:08:33;;;;;;;6.33;5.20;;;27.10;99.90;;;;;;5039700;28;20854;-76
2021/06/20 11:11:07;;;;;;;10.93;8.10;;;27.30;99.90;;;;;;5037554;28;20608;-76
2021/06/20 11:13:33;;;;;;;4.63;3.87;;;27.50;99.90;;;;;;5032334;28;20441;-76
2021/06/20 11:16:08;;;;;;;3.60;3.30;;;27.60;99.90;;;;;;5038661;28;20452;-76
2021/06/20 11:18:34;;;;;;;3.60;3.17;;;27.70;99.90;;;;;;5031134;28;20428;-75
2021/06/20 11:20:59;;;;;;;3.50;3.20;;;27.70;99.90;;;;;;5032468;28;20433;-74
2021/06/20 11:23:34;;;;;;;3.90;3.37;;;27.60;99.90;;;;;;5027366;28;20223;-78
2021/06/20 11:26:02;;;;;;;3.97;3.50;;;27.60;99.90;;;;;;5037542;28;20205;-76
2021/06/20 11:28:29;;;;;;;4.50;3.63;;;27.70;99.90;;;;;;5019909;28;20422;-77
2021/06/20 11:31:11;;;;;;;5.07;3.17;;;27.90;99.90;;;;;;5040439;28;20535;-77
2021/06/20 11:33:38;;;;;;;3.70;3.40;;;28.10;99.90;;;;;;5025404;28;20432;-78
2021/06/20 11:36:04;;;;;;;3.77;3.47;;;28.00;99.90;;;;;;5040497;28;20806;-77
2021/06/20 11:38:35;;;;;;;6.03;3.67;;;27.70;99.90;;;;;;5040589;28;20439;-77
2021/06/20 11:41:15;;;;;;;4.40;3.90;;;27.80;99.90;;;;;;5033667;28;20552;-76
2021/06/20 11:43:58;;;;;;;3.63;3.30;;;28.10;99.90;;;;;;5042397;28;20460;-76
2021/06/20 11:46:25;;;;;;;4.10;3.53;;;27.90;99.90;;;;;;5044484;28;21182;-77
2021/06/20 11:48:53;;;;;;;3.93;3.33;;;27.70;99.90;;;;;;5033417;28;20494;-77
2021/06/20 11:51:46;;;;;;;3.80;3.40;;;27.40;99.90;;;;;;5042886;28;20421;-77
2021/06/20 11:54:14;;;;;;;4.03;3.40;;;27.60;99.90;;;;;;5039629;28;20432;-76
2021/06/20 11:56:42;;;;;;;3.73;3.33;;;27.60;99.90;;;;;;5041264;28;20509;-77
2021/06/20 11:59:08;;;;;;;3.63;3.33;;;27.70;99.90;;;;;;5038836;28;20782;-77
2021/06/20 12:02:02;;;;;;;4.00;2.97;;;28.10;99.90;;;;;;5044495;28;20429;-77
2021/06/20 12:04:33;;;;;;;3.43;3.13;;;28.50;99.90;;;;;;5021668;28;20929;-77
2021/06/20 12:07:08;;;;;;;3.77;2.57;;;28.60;99.90;;;;;;5037968;28;20413;-76
2021/06/20 12:09:34;;;;;;;4.07;3.40;;;29.00;99.90;;;;;;5027256;28;20408;-76
2021/06/20 12:12:02;;;;;;;3.07;2.83;;;29.20;99.90;;;;;;5047387;28;20425;-76
2021/06/20 12:14:31;;;;;;;3.97;2.63;;;29.30;99.90;;;;;;5023725;28;20409;-78
2021/06/20 12:16:58;;;;;;;3.97;3.20;;;29.60;99.90;;;;;;5044309;28;20427;-77
2021/06/20 12:19:28;;;;;;;2.93;2.73;;;29.90;99.90;;;;;;5038042;28;20425;-78
2021/06/20 12:22:13;;;;;;;2.70;2.50;;;30.90;99.90;;;;;;5031231;28;20458;-77
2021/06/20 12:24:43;;;;;;;2.53;2.33;;;31.50;99.90;;;;;;5004310;28;20465;-77
2021/06/20 12:27:10;;;;;;;4.60;3.03;;;32.00;99.90;;;;;;5042631;28;20408;-77
2021/06/20 12:29:37;;;;;;;2.90;2.60;;;32.20;99.90;;;;;;5040846;28;20912;-77
2021/06/20 12:32:13;;;;;;;3.67;3.37;;;32.60;99.90;;;;;;5041381;28;20456;-77
2021/06/20 12:34:41;;;;;;;3.37;3.07;;;33.40;99.40;;;;;;5040880;28;20481;-78
2021/06/20 12:37:07;;;;;;;2.80;2.60;;;33.70;99.00;;;;;;5038063;28;20179;-77
2021/06/20 12:39:42;;;;;;;4.47;2.53;;;34.10;95.30;;;;;;5037791;28;20213;-77
2021/06/20 12:42:08;;;;;;;5.25;2.65;;;34.40;94.90;;;;;;5038127;28;20203;-77
2021/06/20 12:44:46;;;;;;;3.25;3.05;;;34.80;93.40;;;;;;5045588;28;20179;-78
2021/06/20 12:47:14;;;;;;;3.20;2.90;;;35.10;92.90;;;;;;5039141;28;20248;-78
2021/06/20 12:49:40;;;;;;;3.38;2.83;;;35.50;88.30;;;;;;5041142;28;20186;-78